Spencer, VA (24165)

8:06 PM EDT on August 31, 2015 (GMT -0400)
Blue Ridge | | Change Station
CLOSE
Current Station
Airport
Location: Martinsville,
Elevation: 942 ft
Nearby Weather Stations

Elev 942 ft 36.63 °N, 80.01 °W | Updated 16 minutes ago

Partly Cloudy
Partly Cloudy
77 °F
Feels Like 77 °F
N
0
Wind Variable Wind from North

Today
High -- | Low -- °F
--% Chance of Precip.
Yesterday
High -- | Low -- °F
Precip. -- in
6:50 AM 7:50 PM
Waning Gibbous, 93% visible
Pressure 30.10 in
Visibility 10.0 miles
Clouds Scattered Clouds 3700 ft
Dew Point 68 °F
Humidity 75%
Rainfall 0.04 in
Snow Depth Not available.
UV 0 out of 12
Pollen 6.90 out of 12
Air Quality Not available.
Flu Activity Not available.
METAR KMTV 312350Z AUTO 00000KT 10SM SCT037 25/20 A3010 RMK AO2 T02480202 10307 20248
Pressure 30.10 in
Visibility 10.0 miles
Clouds Scattered Clouds 3700 ft
Dew Point 68 °F
Humidity 75%
Rainfall 0.04 in
Snow Depth Not available.
UV 0 out of 12
Pollen 6.90 out of 12
Air Quality Not available.
Flu Activity Not available.
METAR KMTV 312350Z AUTO 00000KT 10SM SCT037 25/20 A3010 RMK AO2 T02480202 10307 20248

10-Day Weather Forecast

×

Almanac

Astronomy

Aug. 31, 2015 Rise Set
Actual Time
Civil Twilight
Nautical Twilight
Astronomical Twilight
Moon
Length of Visible Light
Length of Day
Tomorrow will be .
, % of the Moon is Illuminated

Today's Extremes

State Highs State Lows

Community

WunderPhotos

Upload Photos

1,851,397 photos uploaded!

WunderBlogs® & News

Nearby

Air Quality

  Air Quality AQ Index Pollutant
Not available.

Snow Depth

Station Depth Elevation

Earthquake Activity

City Distance Mag. Time & Date
Minimum magnitude displayed is 2.5.

Coastal Water Temperatures

Place Temperature

Stations

Nearby Weather Stations

Station Location Temp. Windchill Dew Point Humidity Wind Precip. Elev Updated Type